Terminal Aerodrome Forecast
Issued by NWS

Home | Current Version | Previous Version | Graphics & Text | Print | Product List | Glossary On
Versions: 1 2 3 4 5 6 7 8 9 10 11 12 13 14 15 16 17 18 19 20 21
000
FTUS42 KMHX 011058 AAC
TAFPGV
TAF AMD
KPGV 011058Z 0111/0206 00000KT 4SM BR BKN060
      TEMPO 0111/0113 1SM BR SCT002
     FM011300 VRB02KT P6SM SCT060
     FM011800 24005KT P6SM FEW060
     FM020000 VRB02KT P6SM SCT250
      AMD LTD TO CLD VIS AND WIND=

USA.gov is the U.S. government's official web portal to all federal, state and local government web resources and services.